sensor_id;sensor_type;location;lat;lon;timestamp;pressure;altitude;pressure_sealevel;temperature;humidity
59170;BME280;52474;52.236;5.114;2023-06-14T00:01:53;101568.59;;;18.00;100.00
59170;BME280;52474;52.236;5.114;2023-06-14T00:04:20;101574.94;;;17.99;100.00
59170;BME280;52474;52.236;5.114;2023-06-14T00:06:47;101568.13;;;18.05;100.00
59170;BME280;52474;52.236;5.114;2023-06-14T00:09:14;101571.75;;;17.95;100.00
59170;BME280;52474;52.236;5.114;2023-06-14T00:11:41;101555.47;;;17.80;100.00
59170;BME280;52474;52.236;5.114;2023-06-14T00:14:07;101576.75;;;17.82;100.00
59170;BME280;52474;52.236;5.114;2023-06-14T00:16:33;101581.91;;;17.84;100.00
59170;BME280;52474;52.236;5.114;2023-06-14T00:19:01;101573.06;;;17.83;100.00
59170;BME280;52474;52.236;5.114;2023-06-14T00:21:30;101576.41;;;17.85;100.00
59170;BME280;52474;52.236;5.114;2023-06-14T00:23:59;101576.56;;;17.84;100.00
59170;BME280;52474;52.236;5.114;2023-06-14T00:26:25;101578.56;;;17.81;100.00
59170;BME280;52474;52.236;5.114;2023-06-14T00:28:53;101575.81;;;17.73;100.00
59170;BME280;52474;52.236;5.114;2023-06-14T00:31:20;101550.63;;;17.58;100.00
59170;BME280;52474;52.236;5.114;2023-06-14T00:33:46;101582.19;;;17.72;100.00
59170;BME280;52474;52.236;5.114;2023-06-14T00:36:12;101553.53;;;17.65;100.00
59170;BME280;52474;52.236;5.114;2023-06-14T00:38:37;101572.44;;;17.71;100.00
59170;BME280;52474;52.236;5.114;2023-06-14T00:41:03;101573.78;;;17.67;100.00
59170;BME280;52474;52.236;5.114;2023-06-14T00:43:29;101558.94;;;17.47;100.00
59170;BME280;52474;52.236;5.114;2023-06-14T00:45:55;101570.06;;;17.60;100.00
59170;BME280;52474;52.236;5.114;2023-06-14T00:48:21;101567.88;;;17.55;100.00
59170;BME280;52474;52.236;5.114;2023-06-14T00:50:47;101575.72;;;17.57;100.00
59170;BME280;52474;52.236;5.114;2023-06-14T00:53:16;101574.69;;;17.50;100.00
59170;BME280;52474;52.236;5.114;2023-06-14T00:55:44;101576.50;;;17.49;100.00
59170;BME280;52474;52.236;5.114;2023-06-14T00:58:10;101575.84;;;17.47;100.00
59170;BME280;52474;52.236;5.114;2023-06-14T01:00:36;101575.66;;;17.41;100.00
59170;BME280;52474;52.236;5.114;2023-06-14T01:03:02;101572.44;;;17.37;100.00
59170;BME280;52474;52.236;5.114;2023-06-14T01:05:29;101569.94;;;17.35;100.00
59170;BME280;52474;52.236;5.114;2023-06-14T01:08:21;101574.28;;;17.36;100.00
59170;BME280;52474;52.236;5.114;2023-06-14T01:13:29;101564.50;;;17.27;100.00
59170;BME280;52474;52.236;5.114;2023-06-14T01:15:59;101565.66;;;17.25;100.00
59170;BME280;52474;52.236;5.114;2023-06-14T01:18:28;101569.81;;;17.19;100.00
59170;BME280;52474;52.236;5.114;2023-06-14T01:20:55;101573.25;;;17.11;100.00
59170;BME280;52474;52.236;5.114;2023-06-14T01:23:24;101562.03;;;17.08;100.00
59170;BME280;52474;52.236;5.114;2023-06-14T01:25:51;101569.22;;;17.07;100.00
59170;BME280;52474;52.236;5.114;2023-06-14T01:28:19;101561.50;;;17.04;100.00
59170;BME280;52474;52.236;5.114;2023-06-14T01:30:49;101559.66;;;17.05;100.00
59170;BME280;52474;52.236;5.114;2023-06-14T01:33:22;101561.00;;;17.01;100.00
59170;BME280;52474;52.236;5.114;2023-06-14T01:35:51;101568.38;;;17.07;100.00
59170;BME280;52474;52.236;5.114;2023-06-14T01:38:19;101560.31;;;16.99;100.00
59170;BME280;52474;52.236;5.114;2023-06-14T01:40:48;101527.03;;;16.65;100.00
59170;BME280;52474;52.236;5.114;2023-06-14T01:43:15;101570.31;;;16.97;100.00
59170;BME280;52474;52.236;5.114;2023-06-14T01:45:42;101566.88;;;16.86;100.00
59170;BME280;52474;52.236;5.114;2023-06-14T01:48:09;101574.53;;;16.81;100.00
59170;BME280;52474;52.236;5.114;2023-06-14T01:50:35;101548.31;;;16.67;100.00
59170;BME280;52474;52.236;5.114;2023-06-14T01:53:00;101574.38;;;16.83;100.00
59170;BME280;52474;52.236;5.114;2023-06-14T01:55:26;101570.63;;;16.93;100.00
59170;BME280;52474;52.236;5.114;2023-06-14T01:57:53;101570.84;;;16.82;100.00
59170;BME280;52474;52.236;5.114;2023-06-14T02:00:20;101570.16;;;16.80;100.00
59170;BME280;52474;52.236;5.114;2023-06-14T02:02:47;101572.88;;;16.70;100.00
59170;BME280;52474;52.236;5.114;2023-06-14T02:05:13;101572.75;;;16.72;100.00
59170;BME280;52474;52.236;5.114;2023-06-14T02:07:40;101569.25;;;16.71;100.00
59170;BME280;52474;52.236;5.114;2023-06-14T02:10:06;101572.38;;;16.67;100.00
59170;BME280;52474;52.236;5.114;2023-06-14T02:12:32;101564.72;;;16.72;100.00
59170;BME280;52474;52.236;5.114;2023-06-14T02:14:58;101569.31;;;16.62;100.00
59170;BME280;52474;52.236;5.114;2023-06-14T02:17:24;101541.72;;;16.43;100.00
59170;BME280;52474;52.236;5.114;2023-06-14T02:19:50;101557.94;;;16.60;100.00
59170;BME280;52474;52.236;5.114;2023-06-14T02:22:16;101570.91;;;16.55;100.00
59170;BME280;52474;52.236;5.114;2023-06-14T02:24:42;101561.75;;;16.57;100.00
59170;BME280;52474;52.236;5.114;2023-06-14T02:27:08;101567.41;;;16.54;100.00
59170;BME280;52474;52.236;5.114;2023-06-14T02:29:37;101566.16;;;16.48;100.00
59170;BME280;52474;52.236;5.114;2023-06-14T02:32:04;101568.63;;;16.42;100.00
59170;BME280;52474;52.236;5.114;2023-06-14T02:34:30;101565.09;;;16.41;100.00
59170;BME280;52474;52.236;5.114;2023-06-14T02:36:56;101565.16;;;16.31;100.00
59170;BME280;52474;52.236;5.114;2023-06-14T02:39:22;101572.94;;;16.25;100.00
59170;BME280;52474;52.236;5.114;2023-06-14T02:41:49;101567.88;;;16.22;100.00
59170;BME280;52474;52.236;5.114;2023-06-14T02:44:18;101571.69;;;16.19;100.00
59170;BME280;52474;52.236;5.114;2023-06-14T02:46:44;101577.03;;;16.19;100.00
59170;BME280;52474;52.236;5.114;2023-06-14T02:49:11;101581.06;;;16.05;100.00
59170;BME280;52474;52.236;5.114;2023-06-14T02:51:37;101575.03;;;16.03;100.00
59170;BME280;52474;52.236;5.114;2023-06-14T02:54:03;101583.19;;;16.02;100.00
59170;BME280;52474;52.236;5.114;2023-06-14T02:56:29;101576.47;;;15.98;100.00
59170;BME280;52474;52.236;5.114;2023-06-14T02:58:56;101575.63;;;15.97;100.00
59170;BME280;52474;52.236;5.114;2023-06-14T03:01:25;101580.88;;;15.89;100.00
59170;BME280;52474;52.236;5.114;2023-06-14T03:04:03;101584.94;;;15.93;100.00
59170;BME280;52474;52.236;5.114;2023-06-14T03:06:30;101576.91;;;15.93;100.00
59170;BME280;52474;52.236;5.114;2023-06-14T03:08:57;101591.84;;;15.86;100.00
59170;BME280;52474;52.236;5.114;2023-06-14T03:11:42;101593.00;;;15.83;100.00
59170;BME280;52474;52.236;5.114;2023-06-14T03:14:08;101596.53;;;15.74;100.00
59170;BME280;52474;52.236;5.114;2023-06-14T03:16:35;101599.63;;;15.70;100.00
59170;BME280;52474;52.236;5.114;2023-06-14T03:19:03;101606.09;;;15.67;100.00
59170;BME280;52474;52.236;5.114;2023-06-14T03:21:31;101596.41;;;15.66;100.00
59170;BME280;52474;52.236;5.114;2023-06-14T03:23:59;101599.63;;;15.60;100.00
59170;BME280;52474;52.236;5.114;2023-06-14T03:26:25;101582.28;;;15.46;100.00
59170;BME280;52474;52.236;5.114;2023-06-14T03:28:53;101610.91;;;15.54;100.00
59170;BME280;52474;52.236;5.114;2023-06-14T03:31:21;101610.63;;;15.47;100.00
59170;BME280;52474;52.236;5.114;2023-06-14T03:33:47;101613.19;;;15.49;100.00
59170;BME280;52474;52.236;5.114;2023-06-14T03:36:14;101615.00;;;15.48;100.00
59170;BME280;52474;52.236;5.114;2023-06-14T03:38:40;101592.84;;;15.28;100.00
59170;BME280;52474;52.236;5.114;2023-06-14T03:41:06;101619.25;;;15.41;100.00
59170;BME280;52474;52.236;5.114;2023-06-14T03:43:32;101625.97;;;15.35;100.00
59170;BME280;52474;52.236;5.114;2023-06-14T03:45:59;101612.09;;;15.22;100.00
59170;BME280;52474;52.236;5.114;2023-06-14T03:48:28;101629.06;;;15.31;100.00
59170;BME280;52474;52.236;5.114;2023-06-14T03:50:54;101629.06;;;15.31;100.00
59170;BME280;52474;52.236;5.114;2023-06-14T03:53:20;101630.06;;;15.30;100.00
59170;BME280;52474;52.236;5.114;2023-06-14T03:55:50;101630.06;;;15.30;100.00
59170;BME280;52474;52.236;5.114;2023-06-14T03:58:18;101621.34;;;15.18;100.00
59170;BME280;52474;52.236;5.114;2023-06-14T04:00:45;101621.53;;;15.16;100.00
59170;BME280;52474;52.236;5.114;2023-06-14T04:03:12;101643.00;;;15.24;100.00
59170;BME280;52474;52.236;5.114;2023-06-14T04:05:42;101643.00;;;15.24;100.00
59170;BME280;52474;52.236;5.114;2023-06-14T04:08:08;101635.69;;;15.17;100.00
59170;BME280;52474;52.236;5.114;2023-06-14T04:10:35;101649.59;;;15.20;100.00
59170;BME280;52474;52.236;5.114;2023-06-14T04:13:00;101656.59;;;15.51;100.00
59170;BME280;52474;52.236;5.114;2023-06-14T04:15:26;101640.59;;;16.25;100.00
59170;BME280;52474;52.236;5.114;2023-06-14T04:17:54;101632.31;;;16.92;100.00
59170;BME280;52474;52.236;5.114;2023-06-14T04:20:23;101659.03;;;16.74;100.00
59170;BME280;52474;52.236;5.114;2023-06-14T04:22:52;101663.56;;;16.18;100.00
59170;BME280;52474;52.236;5.114;2023-06-14T04:25:23;101641.78;;;15.85;100.00
59170;BME280;52474;52.236;5.114;2023-06-14T04:27:51;101659.66;;;15.65;100.00
59170;BME280;52474;52.236;5.114;2023-06-14T04:30:18;101662.06;;;15.49;100.00
59170;BME280;52474;52.236;5.114;2023-06-14T04:32:48;101660.81;;;15.43;100.00
59170;BME280;52474;52.236;5.114;2023-06-14T04:35:15;101664.31;;;15.44;100.00
59170;BME280;52474;52.236;5.114;2023-06-14T04:37:44;101649.03;;;15.36;100.00
59170;BME280;52474;52.236;5.114;2023-06-14T04:40:17;101613.50;;;15.16;100.00
59170;BME280;52474;52.236;5.114;2023-06-14T04:42:49;101569.56;;;14.91;100.00
59170;BME280;52474;52.236;5.114;2023-06-14T04:45:24;101667.41;;;15.49;100.00
59170;BME280;52474;52.236;5.114;2023-06-14T04:48:01;101665.44;;;15.51;100.00
59170;BME280;52474;52.236;5.114;2023-06-14T04:50:27;101667.69;;;15.56;100.00
59170;BME280;52474;52.236;5.114;2023-06-14T04:52:55;101673.56;;;15.59;100.00
59170;BME280;52474;52.236;5.114;2023-06-14T04:55:22;101673.56;;;15.59;100.00
59170;BME280;52474;52.236;5.114;2023-06-14T04:57:48;101672.84;;;15.67;100.00
59170;BME280;52474;52.236;5.114;2023-06-14T05:00:14;101665.84;;;15.76;100.00
59170;BME280;52474;52.236;5.114;2023-06-14T05:02:40;101673.13;;;15.83;100.00
59170;BME280;52474;52.236;5.114;2023-06-14T05:05:06;101643.78;;;15.74;100.00
59170;BME280;52474;52.236;5.114;2023-06-14T05:07:32;101670.56;;;15.92;100.00
59170;BME280;52474;52.236;5.114;2023-06-14T05:09:59;101646.81;;;15.88;100.00
59170;BME280;52474;52.236;5.114;2023-06-14T05:12:25;101647.75;;;15.97;100.00
59170;BME280;52474;52.236;5.114;2023-06-14T05:14:51;101666.94;;;16.20;100.00
59170;BME280;52474;52.236;5.114;2023-06-14T05:17:19;101672.53;;;16.27;100.00
59170;BME280;52474;52.236;5.114;2023-06-14T05:19:46;101668.25;;;16.34;100.00
59170;BME280;52474;52.236;5.114;2023-06-14T05:22:12;101682.59;;;16.43;100.00
59170;BME280;52474;52.236;5.114;2023-06-14T05:24:37;101676.09;;;16.45;100.00
59170;BME280;52474;52.236;5.114;2023-06-14T05:27:03;101684.19;;;16.53;100.00
59170;BME280;52474;52.236;5.114;2023-06-14T05:29:29;101683.63;;;16.60;100.00
59170;BME280;52474;52.236;5.114;2023-06-14T05:31:54;101652.56;;;16.49;100.00
59170;BME280;52474;52.236;5.114;2023-06-14T05:34:20;101657.56;;;16.62;100.00
59170;BME280;52474;52.236;5.114;2023-06-14T05:36:46;101675.19;;;16.82;100.00
59170;BME280;52474;52.236;5.114;2023-06-14T05:39:12;101682.31;;;16.91;100.00
59170;BME280;52474;52.236;5.114;2023-06-14T05:41:38;101672.50;;;17.00;100.00
59170;BME280;52474;52.236;5.114;2023-06-14T05:44:05;101683.00;;;17.11;100.00
59170;BME280;52474;52.236;5.114;2023-06-14T05:46:31;101682.22;;;17.19;100.00
59170;BME280;52474;52.236;5.114;2023-06-14T05:48:56;101687.03;;;17.33;100.00
59170;BME280;52474;52.236;5.114;2023-06-14T05:51:23;101665.84;;;17.40;100.00
59170;BME280;52474;52.236;5.114;2023-06-14T05:53:50;101682.25;;;17.63;100.00
59170;BME280;52474;52.236;5.114;2023-06-14T05:56:17;101686.97;;;17.69;100.00
59170;BME280;52474;52.236;5.114;2023-06-14T05:58:44;101686.84;;;17.79;100.00
59170;BME280;52474;52.236;5.114;2023-06-14T06:01:10;101695.63;;;18.07;100.00
59170;BME280;52474;52.236;5.114;2023-06-14T06:03:36;101694.31;;;18.54;100.00
59170;BME280;52474;52.236;5.114;2023-06-14T06:06:08;101701.44;;;18.79;100.00
59170;BME280;52474;52.236;5.114;2023-06-14T06:08:33;101699.66;;;19.21;100.00
59170;BME280;52474;52.236;5.114;2023-06-14T06:10:59;101696.97;;;20.73;100.00
59170;BME280;52474;52.236;5.114;2023-06-14T06:13:26;101691.44;;;24.33;100.00
59170;BME280;52474;52.236;5.114;2023-06-14T06:15:51;101696.53;;;25.58;100.00
59170;BME280;52474;52.236;5.114;2023-06-14T06:18:17;101704.34;;;27.41;100.00
59170;BME280;52474;52.236;5.114;2023-06-14T06:20:43;101702.00;;;27.19;100.00
59170;BME280;52474;52.236;5.114;2023-06-14T06:23:09;101685.34;;;27.59;100.00
59170;BME280;52474;52.236;5.114;2023-06-14T06:25:35;101699.84;;;28.52;100.00
59170;BME280;52474;52.236;5.114;2023-06-14T06:28:01;101701.75;;;28.33;100.00
59170;BME280;52474;52.236;5.114;2023-06-14T06:30:26;101703.31;;;30.26;100.00
59170;BME280;52474;52.236;5.114;2023-06-14T06:32:52;101692.06;;;29.51;100.00
59170;BME280;52474;52.236;5.114;2023-06-14T06:35:18;101708.06;;;30.18;100.00
59170;BME280;52474;52.236;5.114;2023-06-14T06:37:44;101713.84;;;30.22;95.87
59170;BME280;52474;52.236;5.114;2023-06-14T06:40:10;101697.25;;;30.12;97.04
59170;BME280;52474;52.236;5.114;2023-06-14T06:42:36;101715.78;;;30.91;96.19
59170;BME280;52474;52.236;5.114;2023-06-14T06:45:04;101710.72;;;31.45;92.64
59170;BME280;52474;52.236;5.114;2023-06-14T06:47:31;101717.50;;;32.37;86.73
59170;BME280;52474;52.236;5.114;2023-06-14T06:49:57;101726.59;;;31.99;86.64
59170;BME280;52474;52.236;5.114;2023-06-14T06:52:22;101722.63;;;32.78;84.35
59170;BME280;52474;52.236;5.114;2023-06-14T06:54:48;101728.56;;;33.24;79.21
59170;BME280;52474;52.236;5.114;2023-06-14T06:57:16;101738.06;;;31.96;78.96
59170;BME280;52474;52.236;5.114;2023-06-14T06:59:41;101734.19;;;32.14;80.73
59170;BME280;52474;52.236;5.114;2023-06-14T07:02:07;101740.41;;;33.29;77.32
59170;BME280;52474;52.236;5.114;2023-06-14T07:04:33;101733.59;;;34.12;71.58
59170;BME280;52474;52.236;5.114;2023-06-14T07:06:59;101740.97;;;34.74;71.93
59170;BME280;52474;52.236;5.114;2023-06-14T07:09:25;101736.50;;;34.58;69.84
59170;BME280;52474;52.236;5.114;2023-06-14T07:11:50;101718.41;;;34.67;69.80
59170;BME280;52474;52.236;5.114;2023-06-14T07:14:16;101742.53;;;34.50;67.96
59170;BME280;52474;52.236;5.114;2023-06-14T07:16:42;101748.19;;;35.42;67.20
59170;BME280;52474;52.236;5.114;2023-06-14T07:19:08;101742.38;;;34.97;66.45
59170;BME280;52474;52.236;5.114;2023-06-14T07:21:34;101736.38;;;35.16;66.39
59170;BME280;52474;52.236;5.114;2023-06-14T07:24:00;101753.69;;;35.01;64.48
59170;BME280;52474;52.236;5.114;2023-06-14T07:26:26;101736.22;;;36.13;62.98
59170;BME280;52474;52.236;5.114;2023-06-14T07:28:52;101759.97;;;36.09;58.86
59170;BME280;52474;52.236;5.114;2023-06-14T07:31:18;101765.22;;;35.90;58.01
59170;BME280;52474;52.236;5.114;2023-06-14T07:33:45;101763.28;;;36.71;57.79
59170;BME280;52474;52.236;5.114;2023-06-14T07:36:11;101762.91;;;36.28;58.58
59170;BME280;52474;52.236;5.114;2023-06-14T07:38:36;101771.56;;;35.96;58.63
59170;BME280;52474;52.236;5.114;2023-06-14T07:41:03;101759.97;;;36.74;58.47
59170;BME280;52474;52.236;5.114;2023-06-14T07:43:29;101742.22;;;36.85;54.84
59170;BME280;52474;52.236;5.114;2023-06-14T07:45:55;101751.59;;;37.24;54.38
59170;BME280;52474;52.236;5.114;2023-06-14T07:48:22;101763.13;;;37.65;52.75
59170;BME280;52474;52.236;5.114;2023-06-14T07:50:48;101772.16;;;37.47;52.81
59170;BME280;52474;52.236;5.114;2023-06-14T07:53:14;101756.19;;;38.21;50.78
59170;BME280;52474;52.236;5.114;2023-06-14T07:55:40;101771.03;;;37.13;47.98
59170;BME280;52474;52.236;5.114;2023-06-14T07:58:08;101762.31;;;37.65;48.51
59170;BME280;52474;52.236;5.114;2023-06-14T08:00:34;101769.16;;;39.20;45.13
59170;BME280;52474;52.236;5.114;2023-06-14T08:03:00;101772.88;;;38.35;42.53
59170;BME280;52474;52.236;5.114;2023-06-14T08:05:27;101778.13;;;38.79;44.89
59170;BME280;52474;52.236;5.114;2023-06-14T08:07:53;101779.97;;;39.03;40.52
59170;BME280;52474;52.236;5.114;2023-06-14T08:10:19;101784.31;;;38.71;41.57
59170;BME280;52474;52.236;5.114;2023-06-14T08:12:45;101775.97;;;38.09;43.16
59170;BME280;52474;52.236;5.114;2023-06-14T08:15:11;101773.09;;;39.00;42.28
59170;BME280;52474;52.236;5.114;2023-06-14T08:17:37;101775.22;;;40.16;38.13
59170;BME280;52474;52.236;5.114;2023-06-14T08:20:03;101764.81;;;40.21;37.49
59170;BME280;52474;52.236;5.114;2023-06-14T08:22:30;101779.19;;;39.68;37.29
59170;BME280;52474;52.236;5.114;2023-06-14T08:25:00;101773.38;;;40.11;36.52
59170;BME280;52474;52.236;5.114;2023-06-14T08:27:26;101783.06;;;39.01;38.36
59170;BME280;52474;52.236;5.114;2023-06-14T08:29:52;101774.16;;;40.67;35.78
59170;BME280;52474;52.236;5.114;2023-06-14T08:32:18;101776.44;;;41.55;35.68
59170;BME280;52474;52.236;5.114;2023-06-14T08:34:44;101775.56;;;40.64;35.74
59170;BME280;52474;52.236;5.114;2023-06-14T08:37:09;101763.84;;;39.57;36.01
59170;BME280;52474;52.236;5.114;2023-06-14T08:39:37;101764.84;;;38.76;36.93
59170;BME280;52474;52.236;5.114;2023-06-14T08:42:03;101774.16;;;39.04;35.22
59170;BME280;52474;52.236;5.114;2023-06-14T08:44:30;101767.09;;;37.59;35.01
59170;BME280;52474;52.236;5.114;2023-06-14T08:46:56;101774.50;;;38.79;37.10
59170;BME280;52474;52.236;5.114;2023-06-14T08:49:22;101779.59;;;37.46;36.75
59170;BME280;52474;52.236;5.114;2023-06-14T08:51:59;101762.69;;;38.73;37.74
59170;BME280;52474;52.236;5.114;2023-06-14T08:54:29;101758.16;;;39.95;35.48
59170;BME280;52474;52.236;5.114;2023-06-14T08:56:56;101766.28;;;38.74;35.93
59170;BME280;52474;52.236;5.114;2023-06-14T08:59:25;101772.13;;;39.43;35.41
59170;BME280;52474;52.236;5.114;2023-06-14T09:01:52;101754.41;;;39.25;33.21
59170;BME280;52474;52.236;5.114;2023-06-14T09:04:20;101762.72;;;39.58;32.63
59170;BME280;52474;52.236;5.114;2023-06-14T09:06:47;101777.78;;;39.38;35.04
59170;BME280;52474;52.236;5.114;2023-06-14T09:09:21;101776.88;;;40.03;33.93
59170;BME280;52474;52.236;5.114;2023-06-14T09:11:50;101775.13;;;41.07;32.29
59170;BME280;52474;52.236;5.114;2023-06-14T09:14:18;101773.31;;;39.69;32.56
59170;BME280;52474;52.236;5.114;2023-06-14T09:16:43;101776.03;;;40.02;33.14
59170;BME280;52474;52.236;5.114;2023-06-14T09:19:14;101780.31;;;39.01;32.02
59170;BME280;52474;52.236;5.114;2023-06-14T09:21:47;101778.16;;;39.31;34.31
59170;BME280;52474;52.236;5.114;2023-06-14T09:24:14;101769.59;;;39.46;33.02
59170;BME280;52474;52.236;5.114;2023-06-14T09:26:40;101787.22;;;38.61;33.34
59170;BME280;52474;52.236;5.114;2023-06-14T09:29:06;101773.00;;;37.76;35.60
59170;BME280;52474;52.236;5.114;2023-06-14T09:31:32;101784.06;;;38.24;35.72
59170;BME280;52474;52.236;5.114;2023-06-14T09:33:59;101764.22;;;37.93;34.13
59170;BME280;52474;52.236;5.114;2023-06-14T09:36:27;101788.94;;;36.77;33.80
59170;BME280;52474;52.236;5.114;2023-06-14T09:38:55;101782.06;;;39.11;33.83
59170;BME280;52474;52.236;5.114;2023-06-14T09:41:31;101784.78;;;39.49;32.46
59170;BME280;52474;52.236;5.114;2023-06-14T09:43:58;101778.00;;;39.41;33.90
59170;BME280;52474;52.236;5.114;2023-06-14T09:46:29;101787.63;;;38.92;35.00
59170;BME280;52474;52.236;5.114;2023-06-14T09:48:56;101772.63;;;39.78;34.84
59170;BME280;52474;52.236;5.114;2023-06-14T09:51:25;101786.88;;;39.05;31.64
59170;BME280;52474;52.236;5.114;2023-06-14T09:53:52;101786.00;;;38.00;33.31
59170;BME280;52474;52.236;5.114;2023-06-14T09:56:28;101782.16;;;38.68;34.02
59170;BME280;52474;52.236;5.114;2023-06-14T09:58:58;101772.53;;;38.17;35.11
59170;BME280;52474;52.236;5.114;2023-06-14T10:01:26;101790.94;;;38.27;32.42
59170;BME280;52474;52.236;5.114;2023-06-14T10:04:13;101780.28;;;37.91;36.41
59170;BME280;52474;52.236;5.114;2023-06-14T10:06:41;101785.66;;;37.14;35.16
59170;BME280;52474;52.236;5.114;2023-06-14T10:09:09;101788.19;;;37.45;34.58
59170;BME280;52474;52.236;5.114;2023-06-14T10:11:36;101769.59;;;37.50;34.40
59170;BME280;52474;52.236;5.114;2023-06-14T10:14:04;101790.53;;;38.15;35.02
59170;BME280;52474;52.236;5.114;2023-06-14T10:16:32;101785.19;;;37.70;35.84
59170;BME280;52474;52.236;5.114;2023-06-14T10:22:06;101772.44;;;37.11;34.22
59170;BME280;52474;52.236;5.114;2023-06-14T10:24:46;101785.09;;;37.80;31.72
59170;BME280;52474;52.236;5.114;2023-06-14T10:27:14;101777.09;;;38.08;33.62
59170;BME280;52474;52.236;5.114;2023-06-14T10:32:21;101778.63;;;38.81;32.75
59170;BME280;52474;52.236;5.114;2023-06-14T10:35:01;101771.28;;;37.17;33.42
59170;BME280;52474;52.236;5.114;2023-06-14T10:37:27;101775.94;;;37.51;32.60
59170;BME280;52474;52.236;5.114;2023-06-14T10:39:53;101776.63;;;38.87;34.12
59170;BME280;52474;52.236;5.114;2023-06-14T10:42:19;101769.91;;;39.72;31.41
59170;BME280;52474;52.236;5.114;2023-06-14T10:44:49;101767.97;;;37.49;32.40
59170;BME280;52474;52.236;5.114;2023-06-14T10:50:10;101777.91;;;36.01;30.95
59170;BME280;52474;52.236;5.114;2023-06-14T10:52:41;101787.97;;;36.42;32.70
59170;BME280;52474;52.236;5.114;2023-06-14T10:55:11;101778.34;;;36.34;33.71
59170;BME280;52474;52.236;5.114;2023-06-14T10:57:44;101764.88;;;38.33;32.26
59170;BME280;52474;52.236;5.114;2023-06-14T11:00:12;101769.59;;;38.33;31.01
59170;BME280;52474;52.236;5.114;2023-06-14T11:05:42;101752.50;;;36.74;36.23
59170;BME280;52474;52.236;5.114;2023-06-14T11:10:59;101780.47;;;37.42;35.88
59170;BME280;52474;52.236;5.114;2023-06-14T11:13:28;101787.09;;;37.41;35.83
59170;BME280;52474;52.236;5.114;2023-06-14T11:15:54;101765.50;;;37.77;35.50
59170;BME280;52474;52.236;5.114;2023-06-14T11:18:22;101763.44;;;38.60;34.73
59170;BME280;52474;52.236;5.114;2023-06-14T11:20:53;101774.06;;;37.17;36.29
59170;BME280;52474;52.236;5.114;2023-06-14T11:23:19;101771.50;;;36.81;37.95
59170;BME280;52474;52.236;5.114;2023-06-14T11:25:51;101766.13;;;37.05;37.76
59170;BME280;52474;52.236;5.114;2023-06-14T11:28:17;101765.84;;;37.70;37.46
59170;BME280;52474;52.236;5.114;2023-06-14T11:30:45;101754.38;;;37.58;37.32
59170;BME280;52474;52.236;5.114;2023-06-14T11:33:16;101758.41;;;37.07;38.03
59170;BME280;52474;52.236;5.114;2023-06-14T11:35:44;101759.84;;;37.29;37.88
59170;BME280;52474;52.236;5.114;2023-06-14T11:38:11;101750.91;;;35.88;39.10
59170;BME280;52474;52.236;5.114;2023-06-14T11:40:38;101752.84;;;35.00;41.61
59170;BME280;52474;52.236;5.114;2023-06-14T11:43:03;101755.09;;;34.30;44.58
59170;BME280;52474;52.236;5.114;2023-06-14T11:45:30;101760.19;;;34.06;45.20
59170;BME280;52474;52.236;5.114;2023-06-14T11:47:58;101750.88;;;34.75;44.85
59170;BME280;52474;52.236;5.114;2023-06-14T11:50:24;101739.75;;;34.39;45.69
59170;BME280;52474;52.236;5.114;2023-06-14T11:52:58;101750.91;;;34.91;42.91
59170;BME280;52474;52.236;5.114;2023-06-14T11:55:39;101730.53;;;34.97;43.39
59170;BME280;52474;52.236;5.114;2023-06-14T11:58:06;101719.78;;;34.02;45.38
59170;BME280;52474;52.236;5.114;2023-06-14T12:00:32;101743.00;;;33.78;47.57
59170;BME280;52474;52.236;5.114;2023-06-14T12:02:58;101762.94;;;32.77;51.63
59170;BME280;52474;52.236;5.114;2023-06-14T12:05:25;101758.75;;;33.24;50.74
59170;BME280;52474;52.236;5.114;2023-06-14T12:07:58;101755.41;;;33.17;50.02
59170;BME280;52474;52.236;5.114;2023-06-14T12:10:25;101757.50;;;32.16;52.14
59170;BME280;52474;52.236;5.114;2023-06-14T12:12:57;101765.75;;;32.60;51.57
59170;BME280;52474;52.236;5.114;2023-06-14T12:15:23;101760.16;;;33.26;50.30
59170;BME280;52474;52.236;5.114;2023-06-14T12:17:49;101749.09;;;33.91;46.56
59170;BME280;52474;52.236;5.114;2023-06-14T12:20:16;101733.53;;;34.85;49.17
59170;BME280;52474;52.236;5.114;2023-06-14T12:22:55;101737.19;;;34.17;48.86
59170;BME280;52474;52.236;5.114;2023-06-14T12:25:29;101744.63;;;34.22;48.76
59170;BME280;52474;52.236;5.114;2023-06-14T12:27:57;101753.63;;;33.05;49.42
59170;BME280;52474;52.236;5.114;2023-06-14T12:30:23;101746.25;;;32.79;50.29
59170;BME280;52474;52.236;5.114;2023-06-14T12:32:49;101748.44;;;33.04;49.58
59170;BME280;52474;52.236;5.114;2023-06-14T12:35:17;101733.03;;;32.32;51.41
59170;BME280;52474;52.236;5.114;2023-06-14T12:37:44;101735.06;;;32.19;53.69
59170;BME280;52474;52.236;5.114;2023-06-14T12:40:11;101751.34;;;32.70;52.94
59170;BME280;52474;52.236;5.114;2023-06-14T12:42:37;101745.94;;;32.53;53.66
59170;BME280;52474;52.236;5.114;2023-06-14T12:45:03;101734.75;;;32.38;55.48
59170;BME280;52474;52.236;5.114;2023-06-14T12:47:29;101733.22;;;32.03;53.23
59170;BME280;52474;52.236;5.114;2023-06-14T12:49:55;101737.44;;;32.77;53.34
59170;BME280;52474;52.236;5.114;2023-06-14T12:52:21;101741.19;;;32.98;53.17
59170;BME280;52474;52.236;5.114;2023-06-14T12:54:46;101744.44;;;31.67;52.10
59170;BME280;52474;52.236;5.114;2023-06-14T12:57:13;101749.47;;;31.54;53.60
59170;BME280;52474;52.236;5.114;2023-06-14T12:59:38;101753.78;;;32.22;52.24
59170;BME280;52474;52.236;5.114;2023-06-14T13:02:15;101741.44;;;31.86;49.59
59170;BME280;52474;52.236;5.114;2023-06-14T13:04:42;101764.56;;;32.51;50.41